HDAM/JIB METAR and TAF weather

Enter ICAO airport designator
Station Type Date Time Source
HDAM METAR 2020/07/07 08:00 UTC NOAA

HDAM 070800Z 26015KT 5000 SA 41/22 Q1003


Station Type Date Time Source
HDAM Decoded METAR 2020/07/07 08:00 UTC NOAA

Djibouti \ Ambouli, Djibouti (HDAM) 11-33N 043-10E
Jul 07, 2020 - 04:00 AM EDT / 2020.07.07 0800 UTC
Wind: from the W (260 degrees) at 17 MPH (15 KT):0
Visibility: 3 mile(s):0
Weather: sand
Temperature: 105 F (41 C)
Heat index: 114.3 F (45.7 C):1
Dew Point: 71 F (22 C)
Relative Humidity: 33%
Pressure (altimeter): 29.62 in. Hg (1003 hPa)
ob: HDAM 070800Z 26015KT 5000 SA 41/22 Q1003
cycle: 8

Station Type Date Time Source
HDAM TAF 2020/07/07 06:36 UTC NOAA

TAF TAF HDAM 070500Z 0706/0806 27010G15KT 8000 HZ SCT023 SCT133
BECMG 0715/0721 VRB05KT FEW133
BECMG 0800/0806 00000KT FEW020 BKN133

Example: see airport list